Time;durP1;ratioP1;P1;durP2;ratioP2;P2;SDS_P1;SDS_P2;PMS_P1;PMS_P2;Temp;Humidity;BMP_temperature;BMP_pressure;BME280_temperature;BME280_humidity;BME280_pressure;Samples;Min_cycle;Max_cycle;Signal;HPM_P1;HPM_P2
2021/12/16 00:09:21;;;;;;;9.85;4.82;;;;;;;-141.50;100.00;63355.56;4922490;29;20052;-82
2021/12/16 00:31:16;;;;;;;8.13;5.00;;;;;;;-141.50;100.00;63355.56;4943214;29;20055;-83
2021/12/16 00:33:43;;;;;;;8.25;4.88;;;;;;;-141.50;100.00;63355.56;4946023;29;20063;-84
2021/12/16 00:36:13;;;;;;;8.60;5.03;;;;;;;-141.50;100.00;63355.56;4947344;29;20464;-82
2021/12/16 00:38:42;;;;;;;9.02;4.85;;;;;;;-141.50;100.00;63355.56;4943376;29;20047;-82
2021/12/16 00:41:09;;;;;;;9.57;5.25;;;;;;;-141.50;100.00;63355.56;4948617;29;20075;-84
2021/12/16 00:43:47;;;;;;;7.57;4.65;;;;;;;-141.50;100.00;63355.56;4948554;29;20051;-82
2021/12/16 00:47:14;;;;;;;7.45;4.97;;;;;;;-141.50;100.00;63355.56;4947068;29;20043;-85
2021/12/16 00:54:14;;;;;;;9.30;5.77;;;;;;;-141.50;100.00;63355.56;4951930;29;20062;-84
2021/12/16 00:56:44;;;;;;;7.97;4.90;;;;;;;-141.50;100.00;63355.56;4950324;29;20118;-83
2021/12/16 00:59:13;;;;;;;11.27;5.30;;;;;;;-141.50;100.00;63355.56;4950964;29;20059;-83
2021/12/16 01:02:06;;;;;;;9.52;5.43;;;;;;;-141.50;100.00;63355.56;4965912;29;20056;-83
2021/12/16 01:33:31;;;;;;;10.80;6.07;;;;;;;-141.50;100.00;63355.56;4948940;29;20055;-84
2021/12/16 01:35:10;;;;;;;8.75;4.90;;;;;;;-141.50;100.00;63355.56;4948350;29;20048;-83
2021/12/16 01:38:13;;;;;;;10.93;4.40;;;;;;;-141.50;100.00;63355.56;4965567;29;20043;-82
2021/12/16 01:46:00;;;;;;;7.82;4.38;;;;;;;-141.50;100.00;63355.56;4941532;29;20079;-83
2021/12/16 01:51:23;;;;;;;7.38;4.18;;;;;;;-141.50;100.00;63355.56;4948775;29;20056;-81
2021/12/16 01:54:44;;;;;;;6.18;4.00;;;;;;;-141.50;100.00;63355.56;4960830;29;20051;-83
2021/12/16 01:57:24;;;;;;;8.07;4.25;;;;;;;-141.50;100.00;63355.56;4961793;29;20072;-85
2021/12/16 02:00:05;;;;;;;8.15;4.15;;;;;;;-141.50;100.00;63355.56;4948531;29;20052;-85
2021/12/16 02:05:24;;;;;;;6.13;4.10;;;;;;;-141.50;100.00;63355.56;4950771;29;20063;-84
2021/12/16 02:10:37;;;;;;;7.50;4.15;;;;;;;-141.50;100.00;63355.56;4950298;29;20058;-83
2021/12/16 02:27:25;;;;;;;6.82;3.90;;;;;;;-141.50;100.00;63355.56;4950381;29;20052;-84
2021/12/16 02:32:50;;;;;;;9.15;4.47;;;;;;;-141.50;100.00;63355.56;4956644;29;20040;-82
2021/12/16 02:35:30;;;;;;;7.93;4.13;;;;;;;-141.50;100.00;63355.56;4957576;29;20043;-83
2021/12/16 02:37:59;;;;;;;6.57;4.53;;;;;;;-141.50;100.00;63355.56;4954995;29;20036;-84
2021/12/16 02:40:26;;;;;;;7.90;4.95;;;;;;;-141.50;100.00;63355.56;4963814;28;20114;-83
2021/12/16 02:43:22;;;;;;;8.20;4.88;;;;;;;-141.50;100.00;63355.56;4953454;29;20054;-84
2021/12/16 02:48:34;;;;;;;11.57;5.50;;;;;;;-141.50;100.00;63355.56;4957078;28;20084;-84
2021/12/16 02:51:11;;;;;;;9.60;5.60;;;;;;;-141.50;100.00;63355.56;4954503;28;20052;-84
2021/12/16 02:53:43;;;;;;;11.10;5.70;;;;;;;-141.50;100.00;63355.56;4951918;29;20425;-84
2021/12/16 02:56:10;;;;;;;15.55;5.63;;;;;;;-141.50;100.00;63355.56;4951729;29;20072;-83
2021/12/16 02:58:40;;;;;;;10.30;5.60;;;;;;;-141.50;100.00;63355.56;4959746;28;20100;-85
2021/12/16 03:01:13;;;;;;;10.40;5.97;;;;;;;-141.50;100.00;63355.56;4942026;29;20052;-82
2021/12/16 03:03:43;;;;;;;11.82;6.65;;;;;;;-141.50;100.00;63355.56;4941777;29;20603;-84
2021/12/16 03:06:11;;;;;;;12.32;5.80;;;;;;;-141.50;100.00;63355.56;4955548;28;20047;-81
2021/12/16 03:08:40;;;;;;;11.98;6.28;;;;;;;-141.50;100.00;63355.56;4942887;29;20048;-83
2021/12/16 03:16:44;;;;;;;13.57;7.13;;;;;;;-141.50;100.00;63355.56;4948458;29;20047;-85
2021/12/16 03:19:24;;;;;;;12.55;6.40;;;;;;;-141.50;100.00;63355.56;4942212;28;20047;-83
2021/12/16 03:21:55;;;;;;;12.55;7.07;;;;;;;-141.50;100.00;63355.56;4939947;29;20111;-85
2021/12/16 03:33:49;;;;;;;15.02;7.65;;;;;;;-141.50;100.00;63355.56;4925821;29;20116;-83
2021/12/16 03:35:53;;;;;;;14.80;8.30;;;;;;;-141.50;100.00;63355.56;4931373;29;20072;-85
2021/12/16 03:38:20;;;;;;;15.32;7.65;;;;;;;-141.50;100.00;63355.56;4945746;29;20485;-82
2021/12/16 03:40:47;;;;;;;14.63;7.55;;;;;;;-141.50;100.00;63355.56;4944783;29;20059;-84
2021/12/16 03:43:18;;;;;;;15.52;8.15;;;;;;;-141.50;100.00;63355.56;4949100;29;20055;-84
2021/12/16 03:48:55;;;;;;;17.10;8.98;;;;;;;-141.50;100.00;63355.56;4945851;29;20060;-84
2021/12/16 03:51:44;;;;;;;14.80;8.60;;;;;;;-141.50;100.00;63355.56;4945713;29;20071;-84
2021/12/16 03:54:18;;;;;;;17.08;8.63;;;;;;;-141.50;100.00;63355.56;4946774;29;20094;-83
2021/12/16 03:56:45;;;;;;;17.67;9.90;;;;;;;-141.50;100.00;63355.56;4946233;29;20043;-85
2021/12/16 03:59:18;;;;;;;20.20;10.18;;;;;;;-141.50;100.00;63355.56;4947447;29;20111;-84
2021/12/16 04:01:45;;;;;;;17.17;9.95;;;;;;;-141.50;100.00;63355.56;4937794;28;20174;-84
2021/12/16 04:04:13;;;;;;;18.40;9.73;;;;;;;-141.50;100.00;63355.56;4937939;29;20115;-82
2021/12/16 04:06:40;;;;;;;20.25;10.15;;;;;;;-141.50;100.00;63355.56;4937413;29;20075;-84
2021/12/16 04:09:10;;;;;;;17.85;10.00;;;;;;;-141.50;100.00;63355.56;4938888;29;20048;-84
2021/12/16 04:11:42;;;;;;;20.00;10.40;;;;;;;-141.50;100.00;63355.56;4943300;29;20055;-83
2021/12/16 04:14:14;;;;;;;20.75;10.13;;;;;;;-141.50;100.00;63355.56;4944316;29;20052;-85
2021/12/16 04:16:54;;;;;;;20.52;10.70;;;;;;;-141.50;100.00;63355.56;4948701;29;20079;-83
2021/12/16 04:19:26;;;;;;;21.77;11.25;;;;;;;-141.50;100.00;63355.56;4950201;29;20056;-84
2021/12/16 04:22:00;;;;;;;19.95;11.32;;;;;;;-141.50;100.00;63355.56;4942175;29;20462;-85
2021/12/16 04:24:27;;;;;;;24.27;12.02;;;;;;;-141.50;100.00;63355.56;4936321;29;20075;-84
2021/12/16 04:26:55;;;;;;;25.30;11.95;;;;;;;-141.50;100.00;63355.56;4944819;29;20533;-83
2021/12/16 04:29:30;;;;;;;24.10;12.90;;;;;;;-141.50;100.00;63355.56;4936992;29;20076;-82
2021/12/16 04:31:57;;;;;;;24.42;11.88;;;;;;;-141.50;100.00;63355.56;4935334;29;20052;-83
2021/12/16 04:34:24;;;;;;;25.10;13.30;;;;;;;-141.50;100.00;63355.56;4942024;29;20048;-84
2021/12/16 04:36:51;;;;;;;29.08;13.80;;;;;;;-141.50;100.00;63355.56;4926431;29;20096;-83
2021/12/16 04:39:22;;;;;;;30.13;13.70;;;;;;;-141.50;100.00;63355.56;4928131;29;20056;-83
2021/12/16 04:41:50;;;;;;;29.77;14.82;;;;;;;-141.50;100.00;63355.56;4927347;29;20048;-83
2021/12/16 04:44:17;;;;;;;30.30;14.48;;;;;;;-141.50;100.00;63355.56;4928438;29;20087;-84
2021/12/16 04:46:45;;;;;;;33.38;15.82;;;;;;;-141.50;100.00;63355.56;4927789;29;20056;-83
2021/12/16 04:49:14;;;;;;;34.65;16.60;;;;;;;-141.50;100.00;63355.56;4941141;29;20048;-84
2021/12/16 04:51:44;;;;;;;34.70;16.95;;;;;;;-141.50;100.00;63355.56;4926612;29;20052;-83
2021/12/16 04:54:12;;;;;;;35.47;17.38;;;;;;;-141.50;100.00;63355.56;4927948;29;20071;-84
2021/12/16 04:56:40;;;;;;;33.80;17.15;;;;;;;-141.50;100.00;63355.56;4942540;29;20072;-84
2021/12/16 04:59:10;;;;;;;32.67;16.58;;;;;;;-141.50;100.00;63355.56;4938349;29;20048;-84
2021/12/16 05:01:39;;;;;;;32.10;16.90;;;;;;;-141.50;100.00;63355.56;4926924;29;20055;-83
2021/12/16 05:04:06;;;;;;;34.97;17.20;;;;;;;-141.50;100.00;63355.56;4935653;29;20051;-83
2021/12/16 05:06:33;;;;;;;34.25;17.33;;;;;;;-141.50;100.00;63355.56;4936182;29;20589;-83
2021/12/16 05:09:00;;;;;;;32.10;16.10;;;;;;;-141.50;100.00;63355.56;4953037;28;20095;-84
2021/12/16 05:11:28;;;;;;;32.33;15.93;;;;;;;-141.50;100.00;63355.56;4939296;29;20052;-83
2021/12/16 05:13:57;;;;;;;37.10;16.15;;;;;;;-141.50;100.00;63355.56;4935092;29;20112;-81
2021/12/16 05:16:23;;;;;;;33.45;17.08;;;;;;;-141.50;100.00;63355.56;4942571;29;20445;-81
2021/12/16 05:18:53;;;;;;;33.17;16.90;;;;;;;-141.50;100.00;63355.56;4942986;29;20060;-83
2021/12/16 05:24:27;;;;;;;35.28;17.02;;;;;;;-141.50;100.00;63355.56;4903706;29;20052;-83
2021/12/16 05:26:59;;;;;;;35.58;17.95;;;;;;;-141.50;100.00;63355.56;4905391;29;20060;-83
2021/12/16 05:29:27;;;;;;;37.60;17.58;;;;;;;-141.50;100.00;63355.56;4922191;29;20060;-84
2021/12/16 05:31:54;;;;;;;35.25;17.73;;;;;;;-141.50;100.00;63355.56;4948618;29;20086;-83
2021/12/16 05:34:22;;;;;;;37.83;18.38;;;;;;;-141.50;100.00;63355.56;4959179;28;20087;-80
2021/12/16 05:36:52;;;;;;;40.25;18.95;;;;;;;-141.50;100.00;63355.56;4950871;28;20060;-80
2021/12/16 05:39:19;;;;;;;40.17;18.63;;;;;;;-141.50;100.00;63355.56;4954412;29;20051;-82
2021/12/16 05:41:47;;;;;;;43.03;19.02;;;;;;;-141.50;100.00;63355.56;4955689;29;20043;-84
2021/12/16 05:44:13;;;;;;;39.08;19.05;;;;;;;-141.50;100.00;63355.56;4961607;28;20051;-84
2021/12/16 05:46:40;;;;;;;39.70;19.45;;;;;;;-141.50;100.00;63355.56;4938441;29;20090;-84
2021/12/16 05:49:13;;;;;;;39.55;19.00;;;;;;;-141.50;100.00;63355.56;4938852;29;20093;-83
2021/12/16 05:51:42;;;;;;;40.78;19.33;;;;;;;-141.50;100.00;63355.56;4946251;29;20504;-82
2021/12/16 05:54:10;;;;;;;38.05;18.52;;;;;;;-141.50;100.00;63355.56;4947450;29;20055;-84
2021/12/16 05:56:37;;;;;;;37.67;19.02;;;;;;;-141.50;100.00;63355.56;4948281;29;20459;-83
2021/12/16 05:59:05;;;;;;;39.72;19.67;;;;;;;-141.50;100.00;63355.56;4946658;29;20056;-83
2021/12/16 06:01:35;;;;;;;42.85;20.17;;;;;;;-141.50;100.00;63355.56;4948404;29;20067;-81
2021/12/16 06:04:02;;;;;;;38.90;19.10;;;;;;;-141.50;100.00;63355.56;4949034;29;20492;-83
2021/12/16 06:06:32;;;;;;;41.15;19.83;;;;;;;-141.50;100.00;63355.56;4962924;28;20055;-82
2021/12/16 06:09:00;;;;;;;42.45;19.80;;;;;;;-141.50;100.00;63355.56;4942641;29;20115;-82
2021/12/16 06:11:31;;;;;;;39.72;20.65;;;;;;;-141.50;100.00;63355.56;4954696;28;20055;-84
2021/12/16 06:14:23;;;;;;;44.63;20.70;;;;;;;-141.50;100.00;63355.56;4941400;29;20066;-84
2021/12/16 06:27:48;;;;;;;42.15;20.00;;;;;;;-141.50;100.00;63355.56;4939142;29;20048;-82
2021/12/16 06:30:20;;;;;;;37.03;19.33;;;;;;;-141.50;100.00;63355.56;4940968;28;20059;-85
2021/12/16 06:32:47;;;;;;;41.13;20.30;;;;;;;-141.50;100.00;63355.56;4961204;28;20051;-85
2021/12/16 06:35:14;;;;;;;44.30;19.95;;;;;;;-141.50;100.00;63355.56;4941392;28;20055;-84
2021/12/16 06:37:41;;;;;;;42.10;20.23;;;;;;;-141.50;100.00;63355.56;4956800;28;20086;-85
2021/12/16 06:40:09;;;;;;;41.75;19.45;;;;;;;-141.50;100.00;63355.56;4962677;28;20055;-85
2021/12/16 06:42:39;;;;;;;40.97;18.83;;;;;;;-141.50;100.00;63355.56;4957199;29;20063;-83
2021/12/16 06:45:12;;;;;;;37.53;19.55;;;;;;;-141.50;100.00;63355.56;4953646;28;20055;-85
2021/12/16 06:50:08;;;;;;;41.63;20.63;;;;;;;-141.50;100.00;63355.56;4952073;29;20039;-82
2021/12/16 06:52:41;;;;;;;41.75;20.20;;;;;;;-141.50;100.00;63355.56;4954138;28;20107;-84
2021/12/16 06:55:24;;;;;;;39.25;19.58;;;;;;;-141.50;100.00;63355.56;4965299;28;20079;-83
2021/12/16 06:57:56;;;;;;;43.05;19.08;;;;;;;-141.50;100.00;63355.56;4941206;29;20071;-84
2021/12/16 07:00:35;;;;;;;41.55;19.30;;;;;;;-141.50;100.00;63355.56;4939220;29;20080;-82
2021/12/16 07:03:05;;;;;;;40.65;19.35;;;;;;;-141.50;100.00;63355.56;4933079;29;20044;-84
2021/12/16 07:05:38;;;;;;;43.80;20.23;;;;;;;-141.50;100.00;63355.56;4939674;29;20062;-85
2021/12/16 07:08:09;;;;;;;37.90;18.55;;;;;;;-141.50;100.00;63355.56;4944352;28;20079;-84
2021/12/16 07:10:40;;;;;;;41.65;19.63;;;;;;;-141.50;100.00;63355.56;4935179;28;20048;-84
2021/12/16 07:13:16;;;;;;;39.35;19.05;;;;;;;-141.50;100.00;63355.56;4937744;29;20051;-83
2021/12/16 07:15:43;;;;;;;38.95;19.73;;;;;;;-141.50;100.00;63355.56;4956909;29;20066;-83
2021/12/16 07:18:09;;;;;;;41.53;19.17;;;;;;;-141.50;100.00;63355.56;4958217;28;20121;-84
2021/12/16 07:20:37;;;;;;;36.85;18.95;;;;;;;-141.50;100.00;63355.56;4940090;29;20095;-83
2021/12/16 07:23:06;;;;;;;38.80;19.30;;;;;;;-141.50;100.00;63355.56;4943061;29;20401;-84
2021/12/16 07:25:33;;;;;;;44.78;19.80;;;;;;;-141.50;100.00;63355.56;4936627;29;20051;-81
2021/12/16 07:28:04;;;;;;;40.70;19.27;;;;;;;-141.50;100.00;63355.56;4938217;29;20079;-81
2021/12/16 07:30:31;;;;;;;40.50;19.90;;;;;;;-141.50;100.00;63355.56;4938475;29;20056;-84
2021/12/16 07:32:57;;;;;;;44.58;19.58;;;;;;;-141.50;100.00;63355.56;4940659;29;20481;-84
2021/12/16 07:35:26;;;;;;;44.00;20.42;;;;;;;-141.50;100.00;63355.56;4940552;29;20528;-82
2021/12/16 07:37:54;;;;;;;40.05;20.20;;;;;;;-141.50;100.00;63355.56;4941814;29;20095;-83
2021/12/16 07:40:23;;;;;;;40.80;18.40;;;;;;;-141.50;100.00;63355.56;4943518;29;20086;-83
2021/12/16 07:45:32;;;;;;;40.90;19.33;;;;;;;-141.50;100.00;63355.56;4945184;29;20489;-82
2021/12/16 07:47:59;;;;;;;38.35;19.77;;;;;;;-141.50;100.00;63355.56;4946289;29;20086;-83
2021/12/16 07:50:26;;;;;;;37.80;19.23;;;;;;;-141.50;100.00;63355.56;4960046;28;20071;-83
2021/12/16 07:52:53;;;;;;;39.42;19.52;;;;;;;-141.50;100.00;63355.56;4965595;28;20054;-85
2021/12/16 07:55:23;;;;;;;39.22;19.65;;;;;;;-141.50;100.00;63355.56;4962627;28;20055;-83
2021/12/16 07:57:50;;;;;;;43.45;20.20;;;;;;;-141.50;100.00;63355.56;4953088;28;20059;-85
2021/12/16 08:00:22;;;;;;;40.85;19.92;;;;;;;-141.50;100.00;63355.56;4945032;29;20059;-84
2021/12/16 08:02:49;;;;;;;45.47;20.60;;;;;;;-141.50;100.00;63355.56;4944494;29;20107;-84
2021/12/16 08:05:17;;;;;;;40.05;19.58;;;;;;;-141.50;100.00;63355.56;4951284;29;20147;-84
2021/12/16 08:07:44;;;;;;;39.63;19.77;;;;;;;-141.50;100.00;63355.56;4978779;28;20663;-83
2021/12/16 08:10:15;;;;;;;41.75;21.65;;;;;;;-141.50;100.00;63355.56;4978927;28;20059;-83
2021/12/16 08:12:42;;;;;;;46.97;20.50;;;;;;;-141.50;100.00;63355.56;4955751;28;20567;-84
2021/12/16 08:15:09;;;;;;;42.47;21.23;;;;;;;-141.50;100.00;63355.56;4953306;29;20216;-83
2021/12/16 08:17:36;;;;;;;43.65;21.45;;;;;;;-141.50;100.00;63355.56;4956907;28;20055;-84
2021/12/16 08:20:05;;;;;;;46.70;22.17;;;;;;;-141.50;100.00;63355.56;4957012;28;20051;-85
2021/12/16 08:22:31;;;;;;;45.28;22.58;;;;;;;-141.50;100.00;63355.56;4959783;28;20091;-82
2021/12/16 08:24:58;;;;;;;49.35;23.77;;;;;;;-141.50;100.00;63355.56;4962317;29;20051;-83
2021/12/16 08:27:25;;;;;;;45.00;22.10;;;;;;;-141.50;100.00;63355.56;4963985;28;20063;-83
2021/12/16 08:29:51;;;;;;;52.08;23.58;;;;;;;-141.50;100.00;63355.56;4962431;29;20058;-83
2021/12/16 08:32:18;;;;;;;47.53;21.95;;;;;;;-141.50;100.00;63355.56;4962398;28;20079;-85
2021/12/16 08:34:46;;;;;;;54.13;23.23;;;;;;;-141.50;100.00;63355.56;4956249;29;20497;-82
2021/12/16 08:37:14;;;;;;;46.17;22.45;;;;;;;-141.50;100.00;63355.56;4950037;29;20047;-83
2021/12/16 08:39:41;;;;;;;49.08;22.80;;;;;;;-141.50;100.00;63355.56;4947882;29;20056;-83
2021/12/16 08:42:09;;;;;;;47.95;22.85;;;;;;;-141.50;100.00;63355.56;4943319;29;20067;-84
2021/12/16 08:44:36;;;;;;;52.80;23.73;;;;;;;-141.50;100.00;63355.56;4944726;29;20063;-81
2021/12/16 08:47:08;;;;;;;49.70;23.42;;;;;;;-141.50;100.00;63355.56;4945085;28;20048;-83
2021/12/16 08:49:35;;;;;;;53.00;24.05;;;;;;;-141.50;100.00;63355.56;4941644;29;20047;-82
2021/12/16 08:52:07;;;;;;;52.92;25.45;;;;;;;-141.50;100.00;63355.56;4941783;29;20051;-84
2021/12/16 08:54:34;;;;;;;60.10;25.63;;;;;;;-141.50;100.00;63355.56;4942703;29;20324;-84
2021/12/16 08:57:01;;;;;;;55.33;23.85;;;;;;;-141.50;100.00;63355.56;4943663;29;20048;-84
2021/12/16 08:59:28;;;;;;;52.38;24.08;;;;;;;-141.50;100.00;63355.56;4942503;29;20115;-84
2021/12/16 09:01:56;;;;;;;54.28;25.00;;;;;;;-141.50;100.00;63355.56;4943379;29;20239;-84
2021/12/16 09:04:24;;;;;;;51.25;24.02;;;;;;;-141.50;100.00;63355.56;4942195;29;20052;-83
2021/12/16 09:06:58;;;;;;;51.42;25.33;;;;;;;-141.50;100.00;63355.56;4943895;29;20063;-84
2021/12/16 09:09:25;;;;;;;53.83;25.27;;;;;;;-141.50;100.00;63355.56;4946765;29;20048;-83
2021/12/16 09:12:13;;;;;;;52.17;23.63;;;;;;;-141.50;100.00;63355.56;4947668;29;20048;-83
2021/12/16 09:14:42;;;;;;;57.10;24.58;;;;;;;-141.50;100.00;63355.56;4939314;29;20066;-85
2021/12/16 09:17:14;;;;;;;52.92;24.27;;;;;;;-141.50;100.00;63355.56;4937197;29;20060;-85
2021/12/16 09:19:45;;;;;;;44.80;22.88;;;;;;;-141.50;100.00;63355.56;4936645;29;20421;-83
2021/12/16 09:22:15;;;;;;;49.35;23.73;;;;;;;-141.50;100.00;63355.56;4941276;29;20083;-83
2021/12/16 09:24:43;;;;;;;49.83;24.30;;;;;;;-141.50;100.00;63355.56;4958055;29;20051;-84
2021/12/16 09:27:09;;;;;;;58.95;25.05;;;;;;;-141.50;100.00;63355.56;4938759;29;20052;-83
2021/12/16 09:29:37;;;;;;;50.75;24.42;;;;;;;-141.50;100.00;63355.56;4939056;29;20052;-82
2021/12/16 09:32:05;;;;;;;54.75;25.05;;;;;;;-141.50;100.00;63355.56;4941601;29;20114;-83
2021/12/16 09:34:42;;;;;;;53.38;25.33;;;;;;;-141.50;100.00;63355.56;4939223;29;20521;-85
2021/12/16 09:37:08;;;;;;;59.83;25.92;;;;;;;-141.50;100.00;63355.56;4958161;29;20055;-85
2021/12/16 09:39:36;;;;;;;61.05;25.33;;;;;;;-141.50;100.00;63355.56;4957734;29;20628;-83
2021/12/16 09:42:06;;;;;;;54.83;26.45;;;;;;;-141.50;100.00;63355.56;4959018;28;20106;-85
2021/12/16 09:44:33;;;;;;;56.03;25.70;;;;;;;-141.50;100.00;63355.56;4960118;28;20188;-84
2021/12/16 09:47:04;;;;;;;59.20;26.08;;;;;;;-141.50;100.00;63355.56;4922394;29;20048;-86
2021/12/16 09:49:30;;;;;;;54.03;25.85;;;;;;;-141.50;100.00;63355.56;4917258;29;20055;-83
2021/12/16 09:51:59;;;;;;;58.03;26.48;;;;;;;-141.50;100.00;63355.56;4918019;29;20080;-81
2021/12/16 09:54:29;;;;;;;54.03;26.23;;;;;;;-141.50;100.00;63355.56;4918388;29;20084;-81
2021/12/16 09:56:56;;;;;;;59.00;25.60;;;;;;;-141.50;100.00;63355.56;4917943;29;20067;-84
2021/12/16 09:59:26;;;;;;;57.78;26.27;;;;;;;-141.50;100.00;63355.56;4919986;29;20052;-84
2021/12/16 10:01:56;;;;;;;55.83;26.15;;;;;;;-141.50;100.00;63355.56;4917923;29;20056;-84
2021/12/16 10:04:31;;;;;;;56.63;26.27;;;;;;;-141.50;100.00;63355.56;4936547;29;20572;-84
2021/12/16 10:07:00;;;;;;;;;;;;;;;-141.50;100.00;63355.56;4939954;29;20051;-84
2021/12/16 10:09:28;;;;;;;62.67;26.42;;;;;;;-141.50;100.00;63355.56;4939251;29;20307;-84
2021/12/16 10:11:57;;;;;;;62.25;26.58;;;;;;;-141.50;100.00;63355.56;4939361;28;20118;-84
2021/12/16 10:19:40;;;;;;;61.28;27.58;;;;;;;-141.50;100.00;63355.56;4939127;29;20139;-85
2021/12/16 10:22:33;;;;;;;66.45;29.08;;;;;;;-141.50;100.00;63355.56;4938215;29;20106;-84
2021/12/16 10:25:21;;;;;;;72.78;29.08;;;;;;;-141.50;100.00;63355.56;4941185;29;20244;-83
2021/12/16 10:27:59;;;;;;;73.63;30.23;;;;;;;-141.50;100.00;63355.56;4939509;29;20051;-83
2021/12/16 10:30:49;;;;;;;78.38;29.77;;;;;;;-141.50;100.00;63355.56;4939039;29;20349;-84
2021/12/16 10:33:18;;;;;;;83.20;31.10;;;;;;;-141.50;100.00;63355.56;4937848;29;20477;-84
2021/12/16 10:35:47;;;;;;;73.82;30.15;;;;;;;-141.50;100.00;63355.56;4936854;29;20071;-83
2021/12/16 10:38:20;;;;;;;79.03;31.15;;;;;;;-141.50;100.00;63355.56;4937340;29;20059;-82
2021/12/16 10:40:53;;;;;;;77.63;30.60;;;;;;;-141.50;100.00;63355.56;4937522;29;20497;-81
2021/12/16 10:43:22;;;;;;;85.65;32.67;;;;;;;-141.50;100.00;63355.56;4939144;29;20051;-84
2021/12/16 10:45:56;;;;;;;77.32;31.00;;;;;;;-141.50;100.00;63355.56;4937393;29;20424;-84
2021/12/16 10:48:35;;;;;;;84.03;32.20;;;;;;;-141.50;100.00;63355.56;4952262;29;20051;-82
2021/12/16 10:51:11;;;;;;;81.15;31.67;;;;;;;-141.50;100.00;63355.56;4954385;29;20048;-82
2021/12/16 10:54:00;;;;;;;84.00;32.47;;;;;;;-141.50;100.00;63355.56;4944898;29;20099;-83
2021/12/16 10:56:35;;;;;;;79.05;32.85;;;;;;;-141.50;100.00;63355.56;4921236;29;20087;-83
2021/12/16 10:59:14;;;;;;;89.50;34.92;;;;;;;-141.50;100.00;63355.56;4920082;29;20079;-81
2021/12/16 11:01:46;;;;;;;88.35;34.70;;;;;;;-141.50;100.00;63355.56;4920554;29;20123;-83
2021/12/16 11:04:15;;;;;;;95.88;35.78;;;;;;;-141.50;100.00;63355.56;4921706;29;20087;-80
2021/12/16 11:06:54;;;;;;;104.10;35.97;;;;;;;-141.50;100.00;63355.56;4949378;29;20109;-83
2021/12/16 11:09:40;;;;;;;95.32;35.60;;;;;;;-141.50;100.00;63355.56;4957249;29;20082;-84
2021/12/16 11:12:18;;;;;;;97.55;34.50;;;;;;;-141.50;100.00;63355.56;4954965;28;20079;-82
2021/12/16 11:14:58;;;;;;;93.50;34.30;;;;;;;-141.50;100.00;63355.56;4938541;29;20047;-81
2021/12/16 11:17:30;;;;;;;100.90;35.80;;;;;;;-141.50;100.00;63355.56;4932613;29;20052;-82
2021/12/16 11:20:12;;;;;;;97.00;35.65;;;;;;;-141.50;100.00;63355.56;4930076;29;20757;-83
2021/12/16 11:22:45;;;;;;;98.32;34.30;;;;;;;-141.50;100.00;63355.56;4935587;29;20052;-82
2021/12/16 11:25:20;;;;;;;101.47;36.72;;;;;;;-141.50;100.00;63355.56;4937722;29;20055;-84
2021/12/16 11:27:52;;;;;;;102.45;35.33;;;;;;;-141.50;100.00;63355.56;4938228;29;20055;-83
2021/12/16 11:30:22;;;;;;;97.63;34.35;;;;;;;-141.50;100.00;63355.56;4931005;29;20079;-82
2021/12/16 11:32:50;;;;;;;105.20;35.10;;;;;;;-141.50;100.00;63355.56;4944503;29;20087;-83
2021/12/16 11:35:23;;;;;;;114.75;36.08;;;;;;;-141.50;100.00;63355.56;4948522;28;20147;-83
2021/12/16 11:37:50;;;;;;;110.20;35.72;;;;;;;-141.50;100.00;63355.56;4932050;29;20090;-82
2021/12/16 11:40:18;;;;;;;101.85;36.45;;;;;;;-141.50;100.00;63355.56;4933181;28;20540;-83
2021/12/16 11:42:59;;;;;;;100.25;34.90;;;;;;;-141.50;100.00;63355.56;4935995;29;20580;-85
2021/12/16 11:45:33;;;;;;;108.75;36.95;;;;;;;-141.50;100.00;63355.56;4946482;28;20091;-84
2021/12/16 11:47:59;;;;;;;98.82;34.88;;;;;;;-141.50;100.00;63355.56;4940948;29;20070;-82
2021/12/16 11:50:40;;;;;;;102.50;36.60;;;;;;;-141.50;100.00;63355.56;4933031;29;20087;-82
2021/12/16 11:53:10;;;;;;;98.10;33.75;;;;;;;-141.50;100.00;63355.56;4950116;29;20124;-82
2021/12/16 11:55:38;;;;;;;92.88;32.63;;;;;;;-141.50;100.00;63355.56;4948133;28;20496;-82
2021/12/16 11:58:07;;;;;;;86.68;32.38;;;;;;;-141.50;100.00;63355.56;4948680;29;20103;-84
2021/12/16 12:00:39;;;;;;;91.07;31.48;;;;;;;-141.50;100.00;63355.56;4932918;29;20118;-83
2021/12/16 12:03:10;;;;;;;84.40;29.98;;;;;;;-141.50;100.00;63355.56;4948515;28;20147;-84
2021/12/16 12:05:42;;;;;;;79.65;29.30;;;;;;;-141.50;100.00;63355.56;4935437;29;20075;-81
2021/12/16 12:08:16;;;;;;;76.13;28.45;;;;;;;-141.50;100.00;63355.56;4934066;29;20055;-80
2021/12/16 12:11:00;;;;;;;70.65;27.83;;;;;;;-141.50;100.00;63355.56;4931092;29;20070;-82
2021/12/16 12:13:36;;;;;;;74.80;29.20;;;;;;;-141.50;100.00;63355.56;4933987;29;20047;-83
2021/12/16 12:16:17;;;;;;;;;;;;;;;-141.50;100.00;63355.56;4942408;28;20409;-82
2021/12/16 12:18:48;;;;;;;79.72;29.45;;;;;;;-141.50;100.00;63355.56;4923184;29;19923;-82
2021/12/16 12:21:21;;;;;;;77.68;28.65;;;;;;;-141.50;100.00;63355.56;4929361;29;20433;-83
2021/12/16 12:24:08;;;;;;;75.03;28.52;;;;;;;-141.50;100.00;63355.56;4930146;29;20047;-83
2021/12/16 12:26:49;;;;;;;79.20;29.95;;;;;;;-141.50;100.00;63355.56;4935857;28;20424;-82
2021/12/16 12:29:30;;;;;;;77.05;27.88;;;;;;;-141.50;100.00;63355.56;4933506;29;20477;-82
2021/12/16 12:32:10;;;;;;;76.80;28.98;;;;;;;-141.50;100.00;63355.56;4932121;29;20102;-83
2021/12/16 12:34:39;;;;;;;63.92;25.73;;;;;;;-141.50;100.00;63355.56;4935892;29;20055;-83
2021/12/16 12:37:19;;;;;;;71.20;27.33;;;;;;;-141.50;100.00;63355.56;4950074;29;20087;-82
2021/12/16 12:39:50;;;;;;;71.22;27.02;;;;;;;-141.50;100.00;63355.56;4948308;28;20135;-83
2021/12/16 12:42:17;;;;;;;68.57;25.50;;;;;;;-141.50;100.00;63355.56;4931968;29;20103;-82
2021/12/16 12:44:45;;;;;;;61.92;24.58;;;;;;;-141.50;100.00;63355.56;4947054;28;20076;-83
2021/12/16 12:47:19;;;;;;;61.67;22.38;;;;;;;-141.50;100.00;63355.56;4934354;29;20078;-84
2021/12/16 12:49:46;;;;;;;52.55;21.63;;;;;;;-141.50;100.00;63355.56;4923032;29;20064;-83
2021/12/16 12:52:19;;;;;;;53.15;21.63;;;;;;;-141.50;100.00;63355.56;4944394;29;20051;-84
2021/12/16 12:55:00;;;;;;;56.88;22.25;;;;;;;-141.50;100.00;63355.56;4927504;29;20075;-83
2021/12/16 12:57:31;;;;;;;49.10;20.00;;;;;;;-141.50;100.00;63355.56;4936816;29;20074;-84
2021/12/16 12:59:58;;;;;;;52.60;20.88;;;;;;;-141.50;100.00;63355.56;4935639;29;20408;-83
2021/12/16 13:02:30;;;;;;;53.88;20.73;;;;;;;-141.50;100.00;63355.56;4933786;29;20243;-83
2021/12/16 13:05:09;;;;;;;48.20;19.98;;;;;;;-141.50;100.00;63355.56;4932787;29;20093;-83
2021/12/16 13:07:38;;;;;;;47.78;20.33;;;;;;;-141.50;100.00;63355.56;4934358;29;20083;-82
2021/12/16 13:10:10;;;;;;;51.03;20.20;;;;;;;-141.50;100.00;63355.56;4933657;29;20047;-83
2021/12/16 13:12:49;;;;;;;46.20;19.33;;;;;;;-141.50;100.00;63355.56;4935798;29;20142;-83
2021/12/16 13:15:37;;;;;;;40.28;18.30;;;;;;;-141.50;100.00;63355.56;4941582;29;20051;-82
2021/12/16 13:23:49;;;;;;;45.20;18.40;;;;;;;-141.50;100.00;63355.56;4954513;29;20058;-82
2021/12/16 13:29:12;;;;;;;42.10;18.35;;;;;;;-141.50;100.00;63355.56;4954265;29;20491;-83
2021/12/16 13:32:04;;;;;;;50.13;19.75;;;;;;;-141.50;100.00;63355.56;4958780;28;20079;-82
2021/12/16 13:34:35;;;;;;;40.10;17.25;;;;;;;-141.50;100.00;63355.56;4962887;29;20484;-82
2021/12/16 13:37:11;;;;;;;42.75;17.48;;;;;;;-141.50;100.00;63355.56;4955345;28;20051;-82
2021/12/16 13:39:44;;;;;;;42.80;18.08;;;;;;;-141.50;100.00;63355.56;4954696;28;20047;-82
2021/12/16 13:42:15;;;;;;;46.05;17.75;;;;;;;-141.50;100.00;63355.56;4952776;29;20090;-82